createdAt,value
2019-03-30T00:02:56.742Z,1012.18
2019-03-30T00:08:56.730Z,1012.12
2019-03-30T00:14:56.766Z,1012.14
2019-03-30T00:20:56.828Z,1012.19
2019-03-30T00:26:56.747Z,1012.17
2019-03-30T00:32:56.808Z,1012.12
2019-03-30T00:38:56.765Z,1012.22
2019-03-30T00:44:56.771Z,1012.18
2019-03-30T00:50:56.752Z,1012.12
2019-03-30T00:56:56.823Z,1012.08
2019-03-30T01:02:57.831Z,1012.05
2019-03-30T01:08:56.768Z,1012.08
2019-03-30T01:14:56.833Z,1011.96
2019-03-30T01:20:56.755Z,1012.11
2019-03-30T01:26:56.787Z,1012.10
2019-03-30T01:32:56.850Z,1012.09
2019-03-30T01:38:56.822Z,1012.05
2019-03-30T01:44:56.805Z,1012.05
2019-03-30T01:50:56.756Z,1012.04
2019-03-30T01:56:56.794Z,1011.94
2019-03-30T02:02:56.776Z,1011.97
2019-03-30T02:08:56.808Z,1011.96
2019-03-30T02:14:56.794Z,1011.82
2019-03-30T02:20:56.850Z,1011.92
2019-03-30T02:26:56.839Z,1011.86
2019-03-30T02:32:56.858Z,1011.96
2019-03-30T02:38:56.869Z,1011.89
2019-03-30T02:44:56.799Z,1011.87
2019-03-30T02:50:56.834Z,1011.92
2019-03-30T02:56:56.783Z,1011.84
2019-03-30T03:02:56.878Z,1011.89
2019-03-30T03:08:56.807Z,1011.92
2019-03-30T03:14:56.847Z,1011.93
2019-03-30T03:21:07.439Z,1011.93
2019-03-30T03:26:57.950Z,1011.88
2019-03-30T03:32:56.883Z,1011.75
2019-03-30T03:38:56.830Z,1011.79
2019-03-30T03:44:56.825Z,1011.85
2019-03-30T03:50:56.860Z,1011.76
2019-03-30T03:56:56.838Z,1011.78
2019-03-30T04:02:56.871Z,1011.79
2019-03-30T04:08:56.919Z,1011.69
2019-03-30T04:14:56.912Z,1011.76
2019-03-30T04:20:56.938Z,1011.80
2019-03-30T04:26:56.840Z,1011.91
2019-03-30T04:32:56.982Z,1011.83
2019-03-30T04:38:56.843Z,1011.86
2019-03-30T04:44:56.905Z,1011.90
2019-03-30T04:50:56.903Z,1011.82
2019-03-30T04:56:56.863Z,1011.92
2019-03-30T05:02:56.870Z,1011.84
2019-03-30T05:08:56.879Z,1012.00
2019-03-30T05:14:56.917Z,1011.99
2019-03-30T05:20:56.870Z,1011.93
2019-03-30T05:26:56.944Z,1011.96
2019-03-30T05:33:05.653Z,1012.00
2019-03-30T05:38:56.895Z,1012.00
2019-03-30T05:44:57.976Z,1012.03
2019-03-30T05:50:56.896Z,1012.08
2019-03-30T05:56:56.970Z,1012.13
2019-03-30T06:02:56.883Z,1012.12
2019-03-30T06:08:56.894Z,1012.04
2019-03-30T06:14:56.877Z,1012.06
2019-03-30T06:20:56.895Z,1012.06
2019-03-30T06:26:56.891Z,1012.02
2019-03-30T06:32:56.921Z,1011.96
2019-03-30T06:38:56.891Z,1011.98
2019-03-30T06:44:59.225Z,1012.00
2019-03-30T06:50:56.872Z,1011.94
2019-03-30T06:56:56.889Z,1012.02
2019-03-30T07:02:56.885Z,1011.98
2019-03-30T07:08:56.918Z,1012.02
2019-03-30T07:14:56.917Z,1012.02
2019-03-30T07:20:56.913Z,1012.04
2019-03-30T07:26:56.917Z,1012.05
2019-03-30T07:32:56.935Z,1012.00
2019-03-30T07:38:56.957Z,1011.98
2019-03-30T07:44:58.040Z,1012.03
2019-03-30T07:50:56.930Z,1011.98
2019-03-30T07:57:05.407Z,1011.98
2019-03-30T08:02:56.909Z,1011.93
2019-03-30T08:08:57.022Z,1012.01
2019-03-30T08:14:56.931Z,1011.99
2019-03-30T08:20:56.947Z,1011.99
2019-03-30T08:26:56.959Z,1012.01
2019-03-30T08:32:56.920Z,1012.04
2019-03-30T08:38:57.071Z,1012.02
2019-03-30T08:44:57.044Z,1011.99
2019-03-30T08:50:57.949Z,1011.96
2019-03-30T08:56:57.003Z,1012.00
2019-03-30T09:02:56.942Z,1011.96
2019-03-30T09:08:56.982Z,1011.92
2019-03-30T09:14:56.978Z,1011.90
2019-03-30T09:20:57.116Z,1011.76
2019-03-30T09:26:57.003Z,1011.84
2019-03-30T09:32:56.967Z,1011.73
2019-03-30T09:38:57.011Z,1011.64
2019-03-30T09:44:57.012Z,1011.51
2019-03-30T09:50:56.989Z,1011.38
2019-03-30T09:56:57.051Z,1011.40
2019-03-30T10:02:57.044Z,1011.31
2019-03-30T10:08:57.020Z,1011.22
2019-03-30T10:14:57.019Z,1011.17
2019-03-30T10:20:57.028Z,1011.05
2019-03-30T10:26:57.081Z,1011.06
2019-03-30T10:32:57.061Z,1010.96
2019-03-30T10:38:57.021Z,1010.89
2019-03-30T10:44:57.080Z,1010.88
2019-03-30T10:50:57.056Z,1010.82
2019-03-30T10:56:57.085Z,1010.70
2019-03-30T11:02:57.088Z,1010.54
2019-03-30T11:08:57.086Z,1010.53
2019-03-30T11:14:57.288Z,1010.52
2019-03-30T11:20:58.175Z,1010.43
2019-03-30T11:26:58.166Z,1010.33
2019-03-30T11:32:57.093Z,1010.20
2019-03-30T11:38:57.298Z,1010.09
2019-03-30T11:44:57.124Z,1010.08
2019-03-30T11:50:57.116Z,1009.97
2019-03-30T11:56:57.140Z,1009.92
2019-03-30T12:02:57.131Z,1009.80
2019-03-30T12:08:57.149Z,1009.75
2019-03-30T12:14:57.963Z,1009.68
2019-03-30T12:20:57.199Z,1009.68
2019-03-30T12:26:58.224Z,1009.54
2019-03-30T12:32:57.182Z,1009.42
2019-03-30T12:38:57.257Z,1009.29
2019-03-30T12:44:57.215Z,1009.21
2019-03-30T12:50:57.237Z,1009.14
2019-03-30T12:56:57.216Z,1009.01
2019-03-30T13:02:57.231Z,1008.95
2019-03-30T13:08:57.395Z,1008.91
2019-03-30T13:14:57.249Z,1008.86
2019-03-30T13:20:57.255Z,1008.78
2019-03-30T13:26:57.200Z,1008.70
2019-03-30T13:32:57.243Z,1008.72
2019-03-30T13:38:57.320Z,1008.68
2019-03-30T13:44:57.417Z,1008.54
2019-03-30T13:50:57.290Z,1008.48
2019-03-30T13:56:57.820Z,1008.41
2019-03-30T14:02:57.597Z,1008.39
2019-03-30T14:08:57.267Z,1008.26
2019-03-30T14:14:57.269Z,1008.14
2019-03-30T14:20:57.375Z,1008.18
2019-03-30T14:26:57.337Z,1008.04
2019-03-30T14:32:57.272Z,1007.95
2019-03-30T14:38:57.308Z,1007.95
2019-03-30T14:44:57.306Z,1007.75
2019-03-30T14:50:57.428Z,1007.64
2019-03-30T14:56:57.342Z,1007.62
2019-03-30T15:02:57.332Z,1007.51
2019-03-30T15:08:57.399Z,1007.45
2019-03-30T15:14:57.312Z,1007.41
2019-03-30T15:20:58.177Z,1007.36
2019-03-30T15:27:00.914Z,1007.30
2019-03-30T15:32:57.538Z,1007.29
2019-03-30T15:38:57.356Z,1007.21
2019-03-30T15:44:57.321Z,1007.04
2019-03-30T15:50:57.395Z,1007.12
2019-03-30T15:56:57.501Z,1007.11
2019-03-30T16:02:57.342Z,1006.97
2019-03-30T16:08:57.383Z,1006.97
2019-03-30T16:14:57.382Z,1006.93
2019-03-30T16:20:57.375Z,1006.95
2019-03-30T16:26:57.358Z,1006.98
2019-03-30T16:32:57.413Z,1006.94
2019-03-30T16:38:57.368Z,1006.90
2019-03-30T16:44:57.429Z,1006.96
2019-03-30T16:50:57.388Z,1006.85
2019-03-30T16:56:57.401Z,1006.86
2019-03-30T17:02:57.425Z,1006.77
2019-03-30T17:08:57.395Z,1006.78
2019-03-30T17:14:57.453Z,1006.82
2019-03-30T17:20:57.449Z,1006.75
2019-03-30T17:26:57.459Z,1006.72
2019-03-30T17:32:57.421Z,1006.72
2019-03-30T17:38:57.454Z,1006.65
2019-03-30T17:44:57.479Z,1006.66
2019-03-30T17:50:58.315Z,1006.67
2019-03-30T17:56:57.541Z,1006.63
2019-03-30T18:02:57.466Z,1006.67
2019-03-30T18:08:57.438Z,1006.79
2019-03-30T18:14:57.509Z,1006.91
2019-03-30T18:20:57.487Z,1006.93
2019-03-30T18:26:57.456Z,1006.96
2019-03-30T18:32:57.505Z,1006.97
2019-03-30T18:39:08.806Z,1007.00
2019-03-30T18:44:57.513Z,1007.07
2019-03-30T18:50:57.533Z,1007.16
2019-03-30T18:56:57.496Z,1007.18
2019-03-30T19:02:57.618Z,1007.40
2019-03-30T19:08:57.505Z,1007.34
2019-03-30T19:14:58.296Z,1007.28
2019-03-30T19:20:57.501Z,1007.36
2019-03-30T19:26:57.539Z,1007.36
2019-03-30T19:32:57.489Z,1007.35
2019-03-30T19:38:57.513Z,1007.44
2019-03-30T19:44:57.473Z,1007.46
2019-03-30T19:50:57.559Z,1007.48
2019-03-30T19:56:57.515Z,1007.43
2019-03-30T20:02:57.498Z,1007.38
2019-03-30T20:08:57.515Z,1007.39
2019-03-30T20:14:57.557Z,1007.44
2019-03-30T20:20:57.583Z,1007.43
2019-03-30T20:26:57.530Z,1007.44
2019-03-30T20:32:58.602Z,1007.44
2019-03-30T20:38:58.642Z,1007.54
2019-03-30T20:44:57.532Z,1007.56
2019-03-30T20:50:57.555Z,1007.52
2019-03-30T20:56:57.560Z,1007.43
2019-03-30T21:02:57.588Z,1007.53
2019-03-30T21:08:57.577Z,1007.49
2019-03-30T21:14:58.215Z,1007.51
2019-03-30T21:20:57.618Z,1007.50
2019-03-30T21:26:58.640Z,1007.56
2019-03-30T21:32:58.666Z,1007.52
2019-03-30T21:38:57.594Z,1007.56
2019-03-30T21:44:58.095Z,1007.57
2019-03-30T21:50:57.584Z,1007.55
2019-03-30T21:56:57.599Z,1007.51
2019-03-30T22:02:57.574Z,1007.43
2019-03-30T22:08:57.603Z,1007.51
2019-03-30T22:14:57.629Z,1007.53
2019-03-30T22:20:57.643Z,1007.43
2019-03-30T22:26:57.617Z,1007.48
2019-03-30T22:32:57.676Z,1007.45
2019-03-30T22:38:57.744Z,1007.41
2019-03-30T22:44:57.806Z,1007.39
2019-03-30T22:50:57.630Z,1007.31
2019-03-30T22:56:57.756Z,1007.39
2019-03-30T23:02:57.639Z,1007.37
2019-03-30T23:08:57.621Z,1007.39
2019-03-30T23:14:57.734Z,1007.29
2019-03-30T23:20:57.648Z,1007.38
2019-03-30T23:26:57.626Z,1007.41
2019-03-30T23:32:57.707Z,1007.35
2019-03-30T23:38:57.808Z,1007.28
2019-03-30T23:44:57.662Z,1007.37
2019-03-30T23:50:57.690Z,1007.31
2019-03-30T23:56:58.836Z,1007.21
